Edwin H. Gott — WDG7082 — position and weather

sailwx.info

Track history (hours):
 
Tides and Currents Weather Stations Pressure Air Temp Water Temp Dewpoint Dewpoint Depression Visibility Wind Speed Wind Dir Waves Ship Positions

Edwin H. Gott

Owner: Great Lakes Fleet, Inc., Homewood, IL. More information available from US FCC via Universal Licensing System and Coast Guard Vessel Documentation Center.

Last reported at 2017-Sep-19 09:18 UTC. Time now 2017-Sep-19 18:43 UTC.
Position N 45°18' W 086°15'.

Length 306 m; draft 8.8 m.

Type: Ship. MMSI: 366971370.

Date/timePositionNaut miles runAvg speedWind from/ knotsBaromVisibWave heightAir tempDewpointWater temp
2017-Sep-19 09:18N 45°18' W 086°15'413.1
2017-Sep-19 09:00N 45°22' W 086°14'713.1
2017-Sep-19 08:30N 45°28' W 086°11'713.2
2017-Sep-19 07:56N 45°36' W 086°08'612.9
2017-Sep-19 07:30N 45°41' W 086°06'713.3
2017-Sep-19 07:00N 45°44' W 085°58'713.4
2017-Sep-19 06:30N 45°48' W 085°49'613.3
2017-Sep-19 06:01N 45°51' W 085°41'612.8
2017-Sep-19 05:30N 45°54' W 085°33'612.7
2017-Sep-19 05:00N 45°53' W 085°24'612.9
2017-Sep-19 04:30N 45°52' W 085°14'613.0
2017-Sep-19 04:01N 45°51' W 085°05'713.1
2017-Sep-19 03:31N 45°50' W 084°56'713.1
2017-Sep-19 03:01N 45°49' W 084°47'612.3
2017-Sep-19 02:30N 45°50' W 084°38'612.0
2017-Sep-19 02:00N 45°52' W 084°30'713.2
2017-Sep-19 01:30N 45°53' W 084°20'713.1
2017-Sep-19 01:00N 45°53' W 084°11'713.0
2017-Sep-19 00:30N 45°55' W 084°02'611.8
2017-Sep-19 00:00N 45°57' W 083°54'610.6
2017-Sep-18 23:26N 46°03' W 083°56'322 9.7
2017-Sep-17 14:12N 47°01' W 091°37'211.6
2017-Sep-17 14:01N 47°00' W 091°40'1 0.3
2017-Sep-17 11:01N 47°01' W 091°40'0 0.0
2017-Sep-17 11:00N 47°01' W 091°40'0 0.0
2017-Sep-17 10:30N 47°01' W 091°40'0 0.0
2017-Sep-17 10:00N 47°01' W 091°40'0 0.0
2017-Sep-17 09:30N 47°01' W 091°40'0 0.0
2017-Sep-17 09:00N 47°01' W 091°40'0 0.0
2017-Sep-17 08:30N 47°01' W 091°40'0 0.0
2017-Sep-17 08:00N 47°01' W 091°40'0 0.0
2017-Sep-17 07:30N 47°01' W 091°40'0 0.0
2017-Sep-17 07:00N 47°01' W 091°40'0 0.0
2017-Sep-17 06:30N 47°01' W 091°40'0 0.0
2017-Sep-17 06:00N 47°01' W 091°40'0 0.0
2017-Sep-17 05:30N 47°01' W 091°40'0 0.0
2017-Sep-17 05:00N 47°01' W 091°40'0 0.3
2017-Sep-17 04:30N 47°01' W 091°40'1 3.0
2017-Sep-17 04:00N 46°59' W 091°41'4 8.0
2017-Sep-17 03:27N 46°55' W 091°43'1 3.2
2017-Sep-17 02:59N 46°57' W 091°43'4 7.4
2017-Sep-17 02:30N 46°59' W 091°39'28013.0
2017-Sep-16 05:00N 46°41' W 084°51'1513.6
2017-Sep-16 03:54N 46°30' W 084°36'410.5
2017-Sep-16 03:30N 46°27' W 084°31'15 4.1
2017-Sep-15 23:47N 46°20' W 084°11'6 6.8
2017-Sep-15 22:51N 46°15' W 084°06'3 9.5
2017-Sep-15 22:30N 46°12' W 084°07'1510.9
2017-Sep-15 21:06N 45°59' W 083°53'113.6
2017-Sep-15 21:00N 45°58' W 083°53'612.6
2017-Sep-15 20:30N 45°54' W 084°00'714.1
2017-Sep-15 20:00N 45°51' W 084°09'714.1
2017-Sep-15 19:30N 45°51' W 084°19'714.1
2017-Sep-15 19:00N 45°51' W 084°29'713.0
2017-Sep-15 18:30N 45°50' W 084°39'713.7
2017-Sep-15 18:00N 45°49' W 084°48'714.5
2017-Sep-15 17:31N 45°50' W 084°59'713.5
2017-Sep-15 17:01N 45°49' W 085°08'510.9
2017-Sep-15 16:30N 45°44' W 085°11'714.2
2017-Sep-15 16:00N 45°38' W 085°17'714.5
2017-Sep-15 15:31N 45°32' W 085°23'714.6
2017-Sep-15 15:00N 45°27' W 085°29'714.6
2017-Sep-15 14:30N 45°21' W 085°35'714.6
2017-Sep-15 14:00N 45°15' W 085°42'714.4
2017-Sep-15 13:31N 45°09' W 085°48'814.5
2017-Sep-15 12:56N 45°02' W 085°55'22 0.4
2017-Sep-13 10:31N 44°56' W 086°25'013.4
2017-Sep-13 10:30N 44°56' W 086°24'713.3
2017-Sep-13 10:00N 45°02' W 086°22'713.3
2017-Sep-13 09:30N 45°09' W 086°19'813.3
2017-Sep-13 08:56N 45°16' W 086°16'613.3
2017-Sep-13 08:30N 45°21' W 086°14'713.2
2017-Sep-13 08:00N 45°28' W 086°12'713.4
2017-Sep-13 07:30N 45°34' W 086°09'713.2
2017-Sep-13 07:01N 45°40' W 086°06'713.0
2017-Sep-13 06:30N 45°44' W 085°59'713.2
2017-Sep-13 06:01N 45°47' W 085°51'612.9
2017-Sep-13 05:31N 45°51' W 085°43'612.8
2017-Sep-13 05:00N 45°53' W 085°34'612.6
2017-Sep-13 04:31N 45°53' W 085°25'612.8
2017-Sep-13 04:01N 45°53' W 085°16'612.9
2017-Sep-13 03:31N 45°52' W 085°07'713.2
2017-Sep-13 03:00N 45°51' W 084°57'613.1
2017-Sep-13 02:31N 45°50' W 084°48'612.5
2017-Sep-13 02:00N 45°50' W 084°39'611.7
2017-Sep-13 01:31N 45°52' W 084°31'613.0
2017-Sep-13 01:01N 45°52' W 084°22'613.0
2017-Sep-13 00:31N 45°53' W 084°13'612.9
2017-Sep-13 00:01N 45°54' W 084°04'612.7
2017-Sep-12 23:30N 45°56' W 083°55'5 9.8
2017-Sep-12 22:59N 46°01' W 083°54'511.1
2017-Sep-12 22:30N 46°04' W 084°01'30 4.0
2017-Sep-12 14:58N 46°30' W 084°23'3 6.6
2017-Sep-12 14:31N 46°29' W 084°27'4 8.4
2017-Sep-12 13:59N 46°27' W 084°33'1412.0
2017-Sep-12 12:49N 46°38' W 084°46'413.1
2017-Sep-12 12:31N 46°41' W 084°49'27912.4
2017-Sep-11 13:58N 47°01' W 091°36'314 7.4
2017-Sep-09 19:23N 45°53' W 084°11'614.5
2017-Sep-09 18:59N 45°52' W 084°19'714.3
2017-Sep-09 18:30N 45°51' W 084°29'713.4
2017-Sep-09 18:01N 45°50' W 084°38'714.0
2017-Sep-09 17:30N 45°49' W 084°48'814.2
2017-Sep-09 16:57N 45°50' W 084°60'613.5
2017-Sep-09 16:30N 45°49' W 085°08'510.4
2017-Sep-09 16:00N 45°44' W 085°10'714.3
2017-Sep-09 15:30N 45°39' W 085°17'714.3
2017-Sep-09 15:00N 45°33' W 085°23'714.5
2017-Sep-09 14:30N 45°27' W 085°29'714.4
2017-Sep-09 14:00N 45°21' W 085°35'714.3
2017-Sep-09 13:30N 45°15' W 085°41'714.0
2017-Sep-09 13:00N 45°10' W 085°47'714.3
2017-Sep-09 12:30N 45°04' W 085°53'  
Track history (hours):
 
Tides and Currents Weather Stations Pressure Air Temp Water Temp Dewpoint Dewpoint Depression Visibility Wind Speed Wind Dir Waves Ship Positions

Edwin H. Gott

Owner: Great Lakes Fleet, Inc., Homewood, IL. More information available from US FCC via Universal Licensing System and Coast Guard Vessel Documentation Center.

Last reported at 2017-Sep-19 09:18 UTC. Time now 2017-Sep-19 18:43 UTC.
Position N 45°18' W 086°15'.

Length 306 m; draft 8.8 m.

Type: Ship. MMSI: 366971370.

Date/timePositionNaut miles runAvg speedWind from/ knotsBaromVisibWave heightAir tempDewpointWater temp
2017-Sep-19 09:18N 45°18' W 086°15'413.1
2017-Sep-19 09:00N 45°22' W 086°14'713.1
2017-Sep-19 08:30N 45°28' W 086°11'713.2
2017-Sep-19 07:56N 45°36' W 086°08'612.9
2017-Sep-19 07:30N 45°41' W 086°06'713.3
2017-Sep-19 07:00N 45°44' W 085°58'713.4
2017-Sep-19 06:30N 45°48' W 085°49'613.3
2017-Sep-19 06:01N 45°51' W 085°41'612.8
2017-Sep-19 05:30N 45°54' W 085°33'612.7
2017-Sep-19 05:00N 45°53' W 085°24'612.9
2017-Sep-19 04:30N 45°52' W 085°14'613.0
2017-Sep-19 04:01N 45°51' W 085°05'713.1
2017-Sep-19 03:31N 45°50' W 084°56'713.1
2017-Sep-19 03:01N 45°49' W 084°47'612.3
2017-Sep-19 02:30N 45°50' W 084°38'612.0
2017-Sep-19 02:00N 45°52' W 084°30'713.2
2017-Sep-19 01:30N 45°53' W 084°20'713.1
2017-Sep-19 01:00N 45°53' W 084°11'713.0
2017-Sep-19 00:30N 45°55' W 084°02'611.8
2017-Sep-19 00:00N 45°57' W 083°54'610.6
2017-Sep-18 23:26N 46°03' W 083°56'322 9.7
2017-Sep-17 14:12N 47°01' W 091°37'211.6
2017-Sep-17 14:01N 47°00' W 091°40'1 0.3
2017-Sep-17 11:01N 47°01' W 091°40'0 0.0
2017-Sep-17 11:00N 47°01' W 091°40'0 0.0
2017-Sep-17 10:30N 47°01' W 091°40'0 0.0
2017-Sep-17 10:00N 47°01' W 091°40'0 0.0
2017-Sep-17 09:30N 47°01' W 091°40'0 0.0
2017-Sep-17 09:00N 47°01' W 091°40'0 0.0
2017-Sep-17 08:30N 47°01' W 091°40'0 0.0
2017-Sep-17 08:00N 47°01' W 091°40'0 0.0
2017-Sep-17 07:30N 47°01' W 091°40'0 0.0
2017-Sep-17 07:00N 47°01' W 091°40'0 0.0
2017-Sep-17 06:30N 47°01' W 091°40'0 0.0
2017-Sep-17 06:00N 47°01' W 091°40'0 0.0
2017-Sep-17 05:30N 47°01' W 091°40'0 0.0
2017-Sep-17 05:00N 47°01' W 091°40'0 0.3
2017-Sep-17 04:30N 47°01' W 091°40'1 3.0
2017-Sep-17 04:00N 46°59' W 091°41'4 8.0
2017-Sep-17 03:27N 46°55' W 091°43'1 3.2
2017-Sep-17 02:59N 46°57' W 091°43'4 7.4
2017-Sep-17 02:30N 46°59' W 091°39'28013.0
2017-Sep-16 05:00N 46°41' W 084°51'1513.6
2017-Sep-16 03:54N 46°30' W 084°36'410.5
2017-Sep-16 03:30N 46°27' W 084°31'15 4.1
2017-Sep-15 23:47N 46°20' W 084°11'6 6.8
2017-Sep-15 22:51N 46°15' W 084°06'3 9.5
2017-Sep-15 22:30N 46°12' W 084°07'1510.9
2017-Sep-15 21:06N 45°59' W 083°53'113.6
2017-Sep-15 21:00N 45°58' W 083°53'612.6
2017-Sep-15 20:30N 45°54' W 084°00'714.1
2017-Sep-15 20:00N 45°51' W 084°09'714.1
2017-Sep-15 19:30N 45°51' W 084°19'714.1
2017-Sep-15 19:00N 45°51' W 084°29'713.0
2017-Sep-15 18:30N 45°50' W 084°39'713.7
2017-Sep-15 18:00N 45°49' W 084°48'714.5
2017-Sep-15 17:31N 45°50' W 084°59'713.5
2017-Sep-15 17:01N 45°49' W 085°08'510.9
2017-Sep-15 16:30N 45°44' W 085°11'714.2
2017-Sep-15 16:00N 45°38' W 085°17'714.5
2017-Sep-15 15:31N 45°32' W 085°23'714.6
2017-Sep-15 15:00N 45°27' W 085°29'714.6
2017-Sep-15 14:30N 45°21' W 085°35'714.6
2017-Sep-15 14:00N 45°15' W 085°42'714.4
2017-Sep-15 13:31N 45°09' W 085°48'814.5
2017-Sep-15 12:56N 45°02' W 085°55'22 0.4
2017-Sep-13 10:31N 44°56' W 086°25'013.4
2017-Sep-13 10:30N 44°56' W 086°24'713.3
2017-Sep-13 10:00N 45°02' W 086°22'713.3
2017-Sep-13 09:30N 45°09' W 086°19'813.3
2017-Sep-13 08:56N 45°16' W 086°16'613.3
2017-Sep-13 08:30N 45°21' W 086°14'713.2
2017-Sep-13 08:00N 45°28' W 086°12'713.4
2017-Sep-13 07:30N 45°34' W 086°09'713.2
2017-Sep-13 07:01N 45°40' W 086°06'713.0
2017-Sep-13 06:30N 45°44' W 085°59'713.2
2017-Sep-13 06:01N 45°47' W 085°51'612.9
2017-Sep-13 05:31N 45°51' W 085°43'612.8
2017-Sep-13 05:00N 45°53' W 085°34'612.6
2017-Sep-13 04:31N 45°53' W 085°25'612.8
2017-Sep-13 04:01N 45°53' W 085°16'612.9
2017-Sep-13 03:31N 45°52' W 085°07'713.2
2017-Sep-13 03:00N 45°51' W 084°57'613.1
2017-Sep-13 02:31N 45°50' W 084°48'612.5
2017-Sep-13 02:00N 45°50' W 084°39'611.7
2017-Sep-13 01:31N 45°52' W 084°31'613.0
2017-Sep-13 01:01N 45°52' W 084°22'613.0
2017-Sep-13 00:31N 45°53' W 084°13'612.9
2017-Sep-13 00:01N 45°54' W 084°04'612.7
2017-Sep-12 23:30N 45°56' W 083°55'5 9.8
2017-Sep-12 22:59N 46°01' W 083°54'511.1
2017-Sep-12 22:30N 46°04' W 084°01'30 4.0
2017-Sep-12 14:58N 46°30' W 084°23'3 6.6
2017-Sep-12 14:31N 46°29' W 084°27'4 8.4
2017-Sep-12 13:59N 46°27' W 084°33'1412.0
2017-Sep-12 12:49N 46°38' W 084°46'413.1
2017-Sep-12 12:31N 46°41' W 084°49'27912.4
2017-Sep-11 13:58N 47°01' W 091°36'314 7.4
2017-Sep-09 19:23N 45°53' W 084°11'614.5
2017-Sep-09 18:59N 45°52' W 084°19'714.3
2017-Sep-09 18:30N 45°51' W 084°29'713.4
2017-Sep-09 18:01N 45°50' W 084°38'714.0
2017-Sep-09 17:30N 45°49' W 084°48'814.2
2017-Sep-09 16:57N 45°50' W 084°60'613.5
2017-Sep-09 16:30N 45°49' W 085°08'510.4
2017-Sep-09 16:00N 45°44' W 085°10'714.3
2017-Sep-09 15:30N 45°39' W 085°17'714.3
2017-Sep-09 15:00N 45°33' W 085°23'714.5
2017-Sep-09 14:30N 45°27' W 085°29'714.4
2017-Sep-09 14:00N 45°21' W 085°35'714.3
2017-Sep-09 13:30N 45°15' W 085°41'714.0
2017-Sep-09 13:00N 45°10' W 085°47'714.3
2017-Sep-09 12:30N 45°04' W 085°53'  

Dump ship's entire track history